createdAt,value
2022-08-17T00:02:21.773Z,4.50
2022-08-17T00:04:53.978Z,4.10
2022-08-17T00:07:20.706Z,4.10
2022-08-17T00:09:47.495Z,4.60
2022-08-17T00:12:42.885Z,4.35
2022-08-17T00:15:01.210Z,4.70
2022-08-17T00:17:27.944Z,5.13
2022-08-17T00:19:54.678Z,5.20
2022-08-17T00:22:33.564Z,5.22
2022-08-17T00:25:05.467Z,4.72
2022-08-17T00:27:32.186Z,5.05
2022-08-17T00:29:58.994Z,5.18
2022-08-17T00:33:15.525Z,5.78
2022-08-17T00:35:15.932Z,5.00
2022-08-17T00:37:42.633Z,5.25
2022-08-17T00:40:12.588Z,5.05
2022-08-17T00:42:40.002Z,5.38
2022-08-17T00:45:10.774Z,5.35
2022-08-17T00:47:37.785Z,5.30
2022-08-17T00:50:06.978Z,5.57
2022-08-17T00:52:38.841Z,5.40
2022-08-17T00:55:07.842Z,5.55
2022-08-17T00:57:46.155Z,5.70
2022-08-17T01:00:36.406Z,5.13
2022-08-17T01:03:14.944Z,5.15
2022-08-17T01:05:42.711Z,5.25
2022-08-17T01:08:15.231Z,5.15
2022-08-17T01:10:58.587Z,5.63
2022-08-17T01:13:40.976Z,5.20
2022-08-17T01:16:11.484Z,5.32
2022-08-17T01:18:39.019Z,5.40
2022-08-17T01:21:22.191Z,5.70
2022-08-17T01:23:49.059Z,5.22
2022-08-17T01:26:16.201Z,4.68
2022-08-17T01:28:55.291Z,5.00
2022-08-17T01:31:27.721Z,5.15
2022-08-17T01:33:54.690Z,5.28
2022-08-17T01:36:21.584Z,5.38
2022-08-17T01:38:48.408Z,5.85
2022-08-17T01:41:16.636Z,5.40
2022-08-17T01:43:54.807Z,5.80
2022-08-17T01:46:25.933Z,5.07
2022-08-17T01:48:53.908Z,5.20
2022-08-17T01:51:21.202Z,5.25
2022-08-17T01:53:53.158Z,5.53
2022-08-17T01:56:23.282Z,5.43
2022-08-17T01:58:50.683Z,5.55
2022-08-17T02:01:22.219Z,5.57
2022-08-17T02:03:59.478Z,5.20
2022-08-17T02:06:31.513Z,5.75
2022-08-17T02:09:16.789Z,4.80
2022-08-17T02:11:44.822Z,4.93
2022-08-17T02:14:13.426Z,5.30
2022-08-17T02:16:41.644Z,5.22
2022-08-17T02:19:12.493Z,5.20
2022-08-17T02:21:41.731Z,5.18
2022-08-17T02:24:11.958Z,4.82
2022-08-17T02:26:38.860Z,5.30
2022-08-17T02:29:05.603Z,6.20
2022-08-17T02:31:32.369Z,6.00
2022-08-17T02:34:03.668Z,5.35
2022-08-17T02:36:33.961Z,5.47
2022-08-17T02:39:12.224Z,5.90
2022-08-17T02:41:40.102Z,5.55
2022-08-17T02:44:07.532Z,5.25
2022-08-17T02:46:34.572Z,5.57
2022-08-17T02:49:01.367Z,4.88
2022-08-17T02:51:28.161Z,5.10
2022-08-17T02:54:02.086Z,5.00
2022-08-17T02:56:42.677Z,5.20
2022-08-17T02:59:09.412Z,5.30
2022-08-17T03:01:36.153Z,4.80
2022-08-17T03:04:03.125Z,5.28
2022-08-17T03:06:31.705Z,4.60
2022-08-17T03:08:58.454Z,5.40
2022-08-17T03:11:25.133Z,5.63
2022-08-17T03:13:51.828Z,5.20
2022-08-17T03:16:18.534Z,5.00
2022-08-17T03:18:45.234Z,4.70
2022-08-17T03:21:11.965Z,4.78
2022-08-17T03:23:42.141Z,5.22
2022-08-17T03:26:15.263Z,4.90
2022-08-17T03:28:42.148Z,5.10
2022-08-17T03:31:08.856Z,4.88
2022-08-17T03:33:35.634Z,5.85
2022-08-17T03:36:02.409Z,5.70
2022-08-17T03:38:29.150Z,5.57
2022-08-17T03:41:06.631Z,5.95
2022-08-17T03:43:34.473Z,5.13
2022-08-17T03:46:34.315Z,5.50
2022-08-17T03:49:25.145Z,5.07
2022-08-17T03:52:11.218Z,5.38
2022-08-17T03:54:56.981Z,5.35
2022-08-17T03:57:24.589Z,5.60
2022-08-17T03:59:51.645Z,5.32
2022-08-17T04:02:31.763Z,5.60
2022-08-17T04:04:59.365Z,6.43
2022-08-17T04:07:28.672Z,6.40
2022-08-17T04:09:55.755Z,6.05
2022-08-17T04:12:24.199Z,5.40
2022-08-17T04:14:53.088Z,5.03
2022-08-17T04:17:25.836Z,4.95
2022-08-17T04:19:53.234Z,5.43
2022-08-17T04:22:32.789Z,4.65
2022-08-17T04:25:14.303Z,5.22
2022-08-17T04:27:41.050Z,4.80
2022-08-17T04:30:08.582Z,5.03
2022-08-17T04:33:03.523Z,5.22
2022-08-17T04:35:37.074Z,5.57
2022-08-17T04:38:05.140Z,5.57
2022-08-17T04:40:51.041Z,5.13
2022-08-17T04:43:21.280Z,4.90
2022-08-17T04:45:56.397Z,4.47
2022-08-17T04:48:36.032Z,4.82
2022-08-17T04:51:25.847Z,5.18
2022-08-17T04:53:56.687Z,5.00
2022-08-17T04:56:25.818Z,5.63
2022-08-17T04:58:55.016Z,5.65
2022-08-17T05:01:24.506Z,5.25
2022-08-17T05:03:53.651Z,5.78
2022-08-17T05:06:20.865Z,5.47
2022-08-17T05:08:47.630Z,5.20
2022-08-17T05:11:14.753Z,5.22
2022-08-17T05:13:41.914Z,5.30
2022-08-17T05:16:09.139Z,5.07
2022-08-17T05:18:37.213Z,6.03
2022-08-17T05:21:04.832Z,5.45
2022-08-17T05:23:37.890Z,5.28
2022-08-17T05:26:26.480Z,6.25
2022-08-17T05:29:02.460Z,5.57
2022-08-17T05:31:30.408Z,5.63
2022-08-17T05:33:57.173Z,5.70
2022-08-17T05:36:43.331Z,5.68
2022-08-17T05:39:16.493Z,5.53
2022-08-17T05:41:48.172Z,5.57
2022-08-17T05:44:15.742Z,5.80
2022-08-17T05:46:47.426Z,5.90
2022-08-17T05:49:16.144Z,5.57
2022-08-17T05:52:20.474Z,5.53
2022-08-17T05:55:26.322Z,5.50
2022-08-17T05:58:13.946Z,5.90
2022-08-17T06:00:51.915Z,5.53
2022-08-17T06:03:47.605Z,5.50
2022-08-17T06:06:19.969Z,6.28
2022-08-17T06:08:53.470Z,5.20
2022-08-17T06:11:37.313Z,5.68
2022-08-17T06:14:28.555Z,5.20
2022-08-17T06:17:03.149Z,5.63
2022-08-17T06:20:03.186Z,4.88
2022-08-17T06:22:34.625Z,4.60
2022-08-17T06:25:25.036Z,5.40
2022-08-17T06:28:01.576Z,5.53
2022-08-17T06:31:00.876Z,5.03
2022-08-17T06:33:30.297Z,5.15
2022-08-17T06:36:40.091Z,4.78
2022-08-17T06:39:31.049Z,4.32
2022-08-17T06:43:02.330Z,4.22
2022-08-17T06:45:34.369Z,3.97
2022-08-17T06:48:03.847Z,4.13
2022-08-17T06:50:47.665Z,4.20
2022-08-17T06:53:34.808Z,4.10
2022-08-17T06:56:13.675Z,4.15
2022-08-17T06:58:43.286Z,3.85
2022-08-17T07:01:15.123Z,3.85
2022-08-17T07:04:12.184Z,3.78
2022-08-17T07:06:59.571Z,4.20
2022-08-17T07:09:33.766Z,4.20
2022-08-17T07:12:16.111Z,3.92
2022-08-17T07:15:04.418Z,4.03
2022-08-17T07:17:46.620Z,3.97
2022-08-17T07:20:20.355Z,4.80
2022-08-17T07:25:30.641Z,3.95
2022-08-17T07:28:02.425Z,4.00
2022-08-17T07:30:47.658Z,4.18
2022-08-17T07:33:22.633Z,4.37
2022-08-17T07:35:50.084Z,4.20
2022-08-17T07:38:26.843Z,4.38
2022-08-17T07:41:04.348Z,3.78
2022-08-17T07:43:40.344Z,4.00
2022-08-17T07:47:05.208Z,4.00
2022-08-17T07:49:31.881Z,3.97
2022-08-17T07:52:26.981Z,4.25
2022-08-17T07:54:50.772Z,4.18
2022-08-17T07:57:26.553Z,4.82
2022-08-17T08:00:03.183Z,4.30
2022-08-17T08:02:43.402Z,4.00
2022-08-17T08:05:48.626Z,4.40
2022-08-17T08:08:19.350Z,4.30
2022-08-17T08:10:59.213Z,4.57
2022-08-17T08:13:32.147Z,4.22
2022-08-17T08:16:17.198Z,4.45
2022-08-17T08:18:55.592Z,4.15
2022-08-17T08:21:48.142Z,4.03
2022-08-17T08:24:46.404Z,4.25
2022-08-17T08:27:31.281Z,4.55
2022-08-17T08:30:18.251Z,4.50
2022-08-17T08:33:12.703Z,4.65
2022-08-17T08:35:53.549Z,4.45
2022-08-17T08:38:49.505Z,4.10
2022-08-17T08:41:41.051Z,4.57
2022-08-17T08:45:04.485Z,5.10
2022-08-17T08:47:47.165Z,4.32
2022-08-17T08:50:30.111Z,4.43
2022-08-17T08:53:09.283Z,4.30
2022-08-17T08:55:49.220Z,4.75
2022-08-17T08:58:36.454Z,4.55
2022-08-17T09:04:24.766Z,4.25
2022-08-17T09:07:09.040Z,4.72
2022-08-17T09:10:13.914Z,5.25
2022-08-17T09:12:59.473Z,4.35
2022-08-17T09:15:34.841Z,4.30
2022-08-17T09:19:00.987Z,4.63
2022-08-17T09:21:03.593Z,4.00
2022-08-17T09:23:42.383Z,4.13
2022-08-17T09:26:24.117Z,4.20
2022-08-17T09:28:53.245Z,4.97
2022-08-17T09:31:35.549Z,4.47
2022-08-17T09:34:22.542Z,4.35
2022-08-17T09:37:03.115Z,4.10
2022-08-17T09:39:41.884Z,4.40
2022-08-17T09:42:29.145Z,4.53
2022-08-17T09:45:07.873Z,4.78
2022-08-17T09:47:45.450Z,4.80
2022-08-17T09:51:04.005Z,4.80
2022-08-17T09:53:35.649Z,4.43
2022-08-17T09:56:20.558Z,4.57
2022-08-17T09:59:21.509Z,4.43
2022-08-17T10:01:58.349Z,4.45
2022-08-17T10:04:56.824Z,4.43
2022-08-17T10:07:30.450Z,4.97
2022-08-17T10:10:21.765Z,4.53
2022-08-17T10:13:05.150Z,4.93
2022-08-17T10:15:56.997Z,4.03
2022-08-17T10:18:43.651Z,3.92
2022-08-17T10:21:31.867Z,4.30
2022-08-17T10:24:28.172Z,4.10
2022-08-17T10:26:57.637Z,4.20
2022-08-17T10:29:48.459Z,4.00
2022-08-17T10:32:35.100Z,4.10
2022-08-17T10:35:20.168Z,4.22
2022-08-17T10:38:08.491Z,4.47
2022-08-17T10:40:51.677Z,4.30
2022-08-17T10:43:27.162Z,4.20
2022-08-17T10:46:30.209Z,4.28
2022-08-17T10:49:16.961Z,3.63
2022-08-17T10:51:53.250Z,4.05
2022-08-17T10:54:31.754Z,4.13
2022-08-17T10:56:58.680Z,4.20
2022-08-17T10:59:37.541Z,4.20
2022-08-17T11:02:12.380Z,4.15
2022-08-17T11:05:00.965Z,4.50
2022-08-17T11:07:52.602Z,4.88
2022-08-17T11:10:23.654Z,4.90
2022-08-17T11:13:16.047Z,4.38
2022-08-17T11:16:22.394Z,4.30
2022-08-17T11:19:10.674Z,4.30
2022-08-17T11:22:06.079Z,4.70
2022-08-17T11:24:53.829Z,4.47
2022-08-17T11:27:30.638Z,4.45
2022-08-17T11:30:12.633Z,4.30
2022-08-17T11:32:47.644Z,4.63
2022-08-17T11:35:31.361Z,4.40
2022-08-17T11:38:25.263Z,4.45
2022-08-17T11:41:27.346Z,4.00
2022-08-17T11:44:24.869Z,4.38
2022-08-17T11:48:16.093Z,4.15
2022-08-17T11:51:13.485Z,4.13
2022-08-17T11:54:21.638Z,4.35
2022-08-17T11:56:50.738Z,3.90
2022-08-17T11:59:59.098Z,4.82
2022-08-17T12:02:31.713Z,4.68
2022-08-17T12:05:14.543Z,4.43
2022-08-17T12:08:04.054Z,4.20
2022-08-17T12:10:34.226Z,4.53
2022-08-17T12:13:12.835Z,4.45
2022-08-17T12:15:48.722Z,4.40
2022-08-17T12:18:27.742Z,3.60
2022-08-17T12:21:25.924Z,3.97
2022-08-17T12:24:16.426Z,3.60
2022-08-17T12:26:50.613Z,3.55
2022-08-17T12:29:35.573Z,3.70
2022-08-17T12:32:07.179Z,3.75
2022-08-17T12:34:44.154Z,3.83
2022-08-17T12:37:19.885Z,3.90
2022-08-17T12:39:52.589Z,3.80
2022-08-17T12:42:25.314Z,3.85
2022-08-17T12:44:52.137Z,4.03
2022-08-17T12:47:22.690Z,4.10
2022-08-17T12:50:03.556Z,4.53
2022-08-17T12:52:32.906Z,4.30
2022-08-17T12:55:21.245Z,4.15
2022-08-17T12:57:51.491Z,4.00
2022-08-17T13:00:47.307Z,3.47
2022-08-17T13:03:24.252Z,3.67
2022-08-17T13:06:02.373Z,3.78
2022-08-17T13:08:43.080Z,3.78
2022-08-17T13:11:18.792Z,3.90
2022-08-17T13:13:50.675Z,4.15
2022-08-17T13:16:19.046Z,4.05
2022-08-17T13:18:54.995Z,3.33
2022-08-17T13:21:30.376Z,3.65
2022-08-17T13:24:17.065Z,3.63
2022-08-17T13:26:49.533Z,3.50
2022-08-17T13:29:27.412Z,2.65
2022-08-17T13:32:13.107Z,3.10
2022-08-17T13:35:12.574Z,3.22
2022-08-17T13:37:36.826Z,3.00
2022-08-17T13:40:09.491Z,2.47
2022-08-17T13:42:51.574Z,3.20
2022-08-17T13:45:36.768Z,2.40
2022-08-17T13:48:24.213Z,2.90
2022-08-17T13:50:56.913Z,2.72
2022-08-17T13:53:37.350Z,2.78
2022-08-17T13:56:37.746Z,2.85
2022-08-17T13:59:04.979Z,2.90
2022-08-17T14:01:53.771Z,3.00
2022-08-17T14:04:29.701Z,3.15
2022-08-17T14:07:25.652Z,3.00
2022-08-17T14:09:59.356Z,3.08
2022-08-17T14:12:28.770Z,2.92
2022-08-17T14:14:56.670Z,3.10
2022-08-17T14:17:25.210Z,2.90
2022-08-17T14:19:52.282Z,3.38
2022-08-17T14:22:23.676Z,3.25
2022-08-17T14:24:51.329Z,3.25
2022-08-17T14:27:20.436Z,3.30
2022-08-17T14:29:47.725Z,3.13
2022-08-17T14:32:26.797Z,3.13
2022-08-17T14:34:54.768Z,4.13
2022-08-17T14:37:22.461Z,3.70
2022-08-17T14:39:49.468Z,3.20
2022-08-17T14:42:16.361Z,3.38
2022-08-17T14:44:43.094Z,3.20
2022-08-17T14:47:15.693Z,3.20
2022-08-17T14:49:42.848Z,3.30
2022-08-17T14:52:13.508Z,3.97
2022-08-17T14:54:45.608Z,3.90
2022-08-17T14:57:26.166Z,3.17
2022-08-17T14:59:59.788Z,3.45
2022-08-17T15:02:31.049Z,4.00
2022-08-17T15:05:05.944Z,3.40
2022-08-17T15:07:32.663Z,3.38
2022-08-17T15:10:02.789Z,3.53
2022-08-17T15:12:34.577Z,2.97
2022-08-17T15:15:06.986Z,3.28
2022-08-17T15:17:54.740Z,3.08
2022-08-17T15:20:27.506Z,3.00
2022-08-17T15:22:55.525Z,2.80
2022-08-17T15:25:24.174Z,2.60
2022-08-17T15:27:51.181Z,2.60
2022-08-17T15:30:18.430Z,3.13
2022-08-17T15:32:50.810Z,3.17
2022-08-17T15:35:26.823Z,3.00
2022-08-17T15:38:04.706Z,3.35
2022-08-17T15:40:36.949Z,3.33
2022-08-17T15:43:10.319Z,3.35
2022-08-17T15:45:38.201Z,3.38
2022-08-17T15:48:05.137Z,3.50
2022-08-17T15:50:31.982Z,3.20
2022-08-17T15:53:00.257Z,3.30
2022-08-17T15:55:29.321Z,3.50
2022-08-17T15:57:56.056Z,3.67
2022-08-17T16:00:28.218Z,3.78
2022-08-17T16:05:42.923Z,3.90
2022-08-17T16:08:10.997Z,3.85
2022-08-17T16:10:38.019Z,4.18
2022-08-17T16:13:04.827Z,3.70
2022-08-17T16:15:32.164Z,3.60
2022-08-17T16:17:59.588Z,3.53
2022-08-17T16:20:26.436Z,3.22
2022-08-17T16:22:54.532Z,3.58
2022-08-17T16:25:49.037Z,3.25
2022-08-17T16:28:12.342Z,3.30
2022-08-17T16:30:39.331Z,3.50
2022-08-17T16:33:06.068Z,3.88
2022-08-17T16:35:33.827Z,3.20
2022-08-17T16:38:00.901Z,3.83
2022-08-17T16:40:31.344Z,3.08
2022-08-17T16:43:02.878Z,3.20
2022-08-17T16:45:36.280Z,3.50
2022-08-17T16:48:03.386Z,3.70
2022-08-17T16:50:30.253Z,3.92
2022-08-17T16:53:17.298Z,4.05
2022-08-17T16:55:45.750Z,3.90
2022-08-17T16:58:12.535Z,3.83
2022-08-17T17:00:42.025Z,3.78
2022-08-17T17:03:21.461Z,3.33
2022-08-17T17:06:07.805Z,3.85
2022-08-17T17:09:02.542Z,3.65
2022-08-17T17:11:50.814Z,4.32
2022-08-17T17:14:27.168Z,4.03
2022-08-17T17:17:04.881Z,3.53
2022-08-17T17:19:45.486Z,4.07
2022-08-17T17:22:42.487Z,3.97
2022-08-17T17:25:27.590Z,3.92
2022-08-17T17:28:05.144Z,3.90
2022-08-17T17:31:02.159Z,4.20
2022-08-17T17:33:44.343Z,4.32
2022-08-17T17:36:29.415Z,4.00
2022-08-17T17:39:05.360Z,4.13
2022-08-17T17:41:51.139Z,5.07
2022-08-17T17:44:25.831Z,5.18
2022-08-17T17:46:56.219Z,5.20
2022-08-17T17:49:24.698Z,5.82
2022-08-17T17:52:14.257Z,5.78
2022-08-17T17:54:50.062Z,4.90
2022-08-17T17:57:30.436Z,4.60
2022-08-17T18:00:07.975Z,4.70
2022-08-17T18:03:24.315Z,4.20
2022-08-17T18:06:12.607Z,4.47
2022-08-17T18:09:03.018Z,4.38
2022-08-17T18:11:41.441Z,4.78
2022-08-17T18:14:35.481Z,4.93
2022-08-17T18:17:02.272Z,4.70
2022-08-17T18:19:30.886Z,5.20
2022-08-17T18:22:16.123Z,4.88
2022-08-17T18:24:45.131Z,4.57
2022-08-17T18:27:29.304Z,4.53
2022-08-17T18:29:58.276Z,5.15
2022-08-17T18:32:34.439Z,4.72
2022-08-17T18:35:27.421Z,5.00
2022-08-17T18:38:21.873Z,4.65
2022-08-17T18:41:01.835Z,5.32
2022-08-17T18:43:44.240Z,5.43
2022-08-17T18:46:31.192Z,4.70
2022-08-17T18:49:01.260Z,5.43
2022-08-17T18:51:41.924Z,5.28
2022-08-17T18:54:38.586Z,5.47
2022-08-17T18:57:07.596Z,5.30
2022-08-17T18:59:44.219Z,5.55
2022-08-17T19:02:22.088Z,5.70
2022-08-17T19:05:07.888Z,5.47
2022-08-17T19:07:45.234Z,4.95
2022-08-17T19:10:31.626Z,5.65
2022-08-17T19:13:11.342Z,7.20
2022-08-17T19:16:12.270Z,7.30
2022-08-17T19:18:53.507Z,7.57
2022-08-17T19:21:30.409Z,7.72
2022-08-17T19:24:02.892Z,7.38
2022-08-17T19:29:32.306Z,5.20
2022-08-17T19:32:01.563Z,5.93
2022-08-17T19:34:34.361Z,5.57
2022-08-17T19:37:29.167Z,6.18
2022-08-17T19:40:07.660Z,6.10
2022-08-17T19:43:06.265Z,5.68
2022-08-17T19:45:52.625Z,6.75
2022-08-17T19:48:19.290Z,6.07
2022-08-17T19:51:03.442Z,6.40
2022-08-17T19:54:06.425Z,5.93
2022-08-17T19:57:06.652Z,6.28
2022-08-17T19:59:36.086Z,6.43
2022-08-17T20:02:22.266Z,6.43
2022-08-17T20:04:50.820Z,5.35
2022-08-17T20:07:23.467Z,5.75
2022-08-17T20:09:58.248Z,5.97
2022-08-17T20:12:34.758Z,6.18
2022-08-17T20:15:11.849Z,6.45
2022-08-17T20:17:42.506Z,6.15
2022-08-17T20:20:20.232Z,6.22
2022-08-17T20:22:53.575Z,6.43
2022-08-17T20:25:39.073Z,5.72
2022-08-17T20:28:24.123Z,4.90
2022-08-17T20:30:52.148Z,5.20
2022-08-17T20:33:26.780Z,5.32
2022-08-17T20:36:18.713Z,4.57
2022-08-17T20:38:52.549Z,5.13
2022-08-17T20:41:25.669Z,5.22
2022-08-17T20:43:55.323Z,4.97
2022-08-17T20:46:37.462Z,4.93
2022-08-17T20:49:26.961Z,4.53
2022-08-17T20:52:09.366Z,4.95
2022-08-17T20:54:57.299Z,4.88
2022-08-17T20:57:45.522Z,4.28
2022-08-17T21:00:35.283Z,4.40
2022-08-17T21:03:23.143Z,4.97
2022-08-17T21:06:00.239Z,4.63
2022-08-17T21:08:35.985Z,5.25
2022-08-17T21:11:57.001Z,6.32
2022-08-17T21:14:29.361Z,6.35
2022-08-17T21:17:17.537Z,6.25
2022-08-17T21:20:20.298Z,6.78
2022-08-17T21:23:00.638Z,6.53
2022-08-17T21:26:08.300Z,6.03
2022-08-17T21:29:00.026Z,6.13
2022-08-17T21:31:39.906Z,5.93
2022-08-17T21:34:16.496Z,5.85
2022-08-17T21:36:50.516Z,5.70
2022-08-17T21:39:33.227Z,6.10
2022-08-17T21:42:00.516Z,6.50
2022-08-17T21:44:31.790Z,5.32
2022-08-17T21:47:14.858Z,5.65
2022-08-17T21:49:41.585Z,5.57
2022-08-17T21:52:17.534Z,6.20
2022-08-17T21:54:53.264Z,5.13
2022-08-17T21:57:23.194Z,4.72
2022-08-17T21:59:56.858Z,4.57
2022-08-17T22:02:35.984Z,4.35
2022-08-17T22:05:06.960Z,4.53
2022-08-17T22:07:46.902Z,4.90
2022-08-17T22:10:31.930Z,4.05
2022-08-17T22:13:16.465Z,4.30
2022-08-17T22:15:47.070Z,4.20
2022-08-17T22:18:19.889Z,4.20
2022-08-17T22:20:52.996Z,4.70
2022-08-17T22:23:46.869Z,4.70
2022-08-17T22:26:16.864Z,4.88
2022-08-17T22:28:52.248Z,4.22
2022-08-17T22:31:20.805Z,4.55
2022-08-17T22:33:51.179Z,4.63
2022-08-17T22:36:30.044Z,5.00
2022-08-17T22:39:00.229Z,4.78
2022-08-17T22:41:31.822Z,4.53
2022-08-17T22:44:15.179Z,4.00
2022-08-17T22:47:11.244Z,4.03
2022-08-17T22:49:53.732Z,3.88
2022-08-17T22:52:32.917Z,3.80
2022-08-17T22:55:32.382Z,3.70
2022-08-17T22:58:18.537Z,4.00
2022-08-17T23:00:48.188Z,3.42
2022-08-17T23:03:22.891Z,3.53
2022-08-17T23:06:05.444Z,3.67
2022-08-17T23:08:35.081Z,4.05
2022-08-17T23:11:02.235Z,3.90
2022-08-17T23:13:29.080Z,4.38
2022-08-17T23:15:55.813Z,4.07
2022-08-17T23:18:23.395Z,5.10
2022-08-17T23:20:50.216Z,4.60
2022-08-17T23:23:23.406Z,5.07
2022-08-17T23:25:50.478Z,4.88
2022-08-17T23:28:17.222Z,4.97
2022-08-17T23:30:46.447Z,4.68
2022-08-17T23:33:30.535Z,4.38
2022-08-17T23:36:00.317Z,4.63
2022-08-17T23:38:27.960Z,5.35
2022-08-17T23:40:55.383Z,4.80
2022-08-17T23:43:25.320Z,5.18
2022-08-17T23:45:58.468Z,5.20
2022-08-17T23:48:32.548Z,5.10
2022-08-17T23:51:08.980Z,5.80
2022-08-17T23:53:38.939Z,6.85
2022-08-17T23:56:10.390Z,7.22
2022-08-17T23:58:38.977Z,7.82
